Terminal Aerodrome Forecast
Issued by NWS Upton, NY

Home | Current Version | Previous Version | Text Only | Print | Product List | Glossary On
Versions: 1 2 3 4 5 6 7 8 9 10 11 12 13 14 15 16 17 18 19 20 21 22 23 24
000
FTUS41 KOKX 221700
TAFJFK
TAF
KJFK 221723Z 2218/2324 18012KT P6SM FEW050 FEW250
     FM222100 19016KT P6SM FEW250
     FM230200 22007KT P6SM FEW050
      TEMPO 2309/2312 4SM BR
     FM231600 22012KT P6SM FEW040
     FM231800 20012KT P6SM SCT040 BKN250 PROB30 2319/2324 P6SM TSRA
      BKN040CB=

USA.gov is the U.S. government's official web portal to all federal, state and local government web resources and services.